createdAt,value
2018-09-20T00:01:30.185Z,2.23
2018-09-20T00:03:58.245Z,2.50
2018-09-20T00:06:26.117Z,2.40
2018-09-20T00:08:54.077Z,2.33
2018-09-20T00:11:21.961Z,2.40
2018-09-20T00:13:49.922Z,2.43
2018-09-20T00:16:18.001Z,2.30
2018-09-20T00:18:46.058Z,2.23
2018-09-20T00:21:13.937Z,2.33
2018-09-20T00:23:41.806Z,2.53
2018-09-20T00:26:09.689Z,2.70
2018-09-20T00:28:37.734Z,2.57
2018-09-20T00:31:05.630Z,2.30
2018-09-20T00:33:33.566Z,2.70
2018-09-20T00:36:01.653Z,2.30
2018-09-20T00:38:29.517Z,2.73
2018-09-20T00:40:57.397Z,2.30
2018-09-20T00:43:25.263Z,2.53
2018-09-20T00:45:53.317Z,2.23
2018-09-20T00:48:21.690Z,2.30
2018-09-20T00:50:49.766Z,2.30
2018-09-20T00:53:17.630Z,2.30
2018-09-20T00:55:45.606Z,2.43
2018-09-20T00:58:13.492Z,2.40
2018-09-20T01:00:41.443Z,2.40
2018-09-20T01:03:09.310Z,2.70
2018-09-20T01:05:37.193Z,2.30
2018-09-20T01:08:05.265Z,2.63
2018-09-20T01:10:33.417Z,2.37
2018-09-20T01:13:01.476Z,2.43
2018-09-20T01:15:29.542Z,2.40
2018-09-20T01:17:57.421Z,2.63
2018-09-20T01:20:25.289Z,2.50
2018-09-20T01:22:53.600Z,2.47
2018-09-20T01:25:21.521Z,2.50
2018-09-20T01:27:49.610Z,2.40
2018-09-20T01:30:17.473Z,2.60
2018-09-20T01:32:45.441Z,2.60
2018-09-20T01:35:13.325Z,2.60
2018-09-20T01:37:41.277Z,2.50
2018-09-20T01:40:09.333Z,2.37
2018-09-20T01:42:37.424Z,2.10
2018-09-20T01:45:05.385Z,2.40
2018-09-20T01:47:33.565Z,2.30
2018-09-20T01:50:01.622Z,2.33
2018-09-20T01:52:29.510Z,2.60
2018-09-20T01:54:57.377Z,2.50
2018-09-20T01:57:25.545Z,2.50
2018-09-20T01:59:53.598Z,2.50
2018-09-20T02:02:26.802Z,2.40
2018-09-20T02:04:54.961Z,2.33
2018-09-20T02:07:23.341Z,2.40
2018-09-20T02:09:51.416Z,2.70
2018-09-20T02:12:19.295Z,2.23
2018-09-20T02:14:47.248Z,2.47
2018-09-20T02:17:15.137Z,2.33
2018-09-20T02:19:43.085Z,2.33
2018-09-20T02:22:10.965Z,2.33
2018-09-20T02:24:38.962Z,2.50
2018-09-20T02:27:06.837Z,2.50
2018-09-20T02:29:34.706Z,2.13
2018-09-20T02:32:02.842Z,2.30
2018-09-20T02:34:30.906Z,2.37
2018-09-20T02:36:58.789Z,2.40
2018-09-20T02:39:26.729Z,2.30
2018-09-20T02:41:54.614Z,2.23
2018-09-20T02:44:22.882Z,2.00
2018-09-20T02:46:50.757Z,2.20
2018-09-20T02:49:18.626Z,2.40
2018-09-20T02:51:46.793Z,2.37
2018-09-20T02:54:14.853Z,2.80
2018-09-20T02:56:42.732Z,2.60
2018-09-20T02:59:10.709Z,2.40
2018-09-20T03:01:38.585Z,2.40
2018-09-20T03:04:06.453Z,2.37
2018-09-20T03:06:34.342Z,2.03
2018-09-20T03:09:02.360Z,2.30
2018-09-20T03:11:30.249Z,2.03
2018-09-20T03:13:58.113Z,2.50
2018-09-20T03:16:25.976Z,2.37
2018-09-20T03:18:54.041Z,2.20
2018-09-20T03:21:22.613Z,2.40
2018-09-20T03:23:50.804Z,2.50
2018-09-20T03:26:18.894Z,2.50
2018-09-20T03:28:46.950Z,2.17
2018-09-20T03:31:15.004Z,2.43
2018-09-20T03:33:43.089Z,2.47
2018-09-20T03:36:10.957Z,2.27
2018-09-20T03:38:38.931Z,2.43
2018-09-20T03:41:06.794Z,2.27
2018-09-20T03:43:34.785Z,2.60
2018-09-20T03:46:02.813Z,2.37
2018-09-20T03:48:30.945Z,2.40
2018-09-20T03:50:58.981Z,2.10
2018-09-20T03:53:27.174Z,2.50
2018-09-20T03:55:55.042Z,2.10
2018-09-20T03:58:22.934Z,2.13
2018-09-20T04:00:50.920Z,2.33
2018-09-20T04:03:18.810Z,2.33
2018-09-20T04:05:46.668Z,2.30
2018-09-20T04:08:14.854Z,2.70
2018-09-20T04:10:42.913Z,2.40
2018-09-20T04:13:10.793Z,2.40
2018-09-20T04:15:38.746Z,2.30
2018-09-20T04:18:06.737Z,2.60
2018-09-20T04:20:34.893Z,2.20
2018-09-20T04:23:02.973Z,2.30
2018-09-20T04:25:30.949Z,2.20
2018-09-20T04:27:58.833Z,2.20
2018-09-20T04:30:26.694Z,2.50
2018-09-20T04:32:54.665Z,2.20
2018-09-20T04:35:23.198Z,2.40
2018-09-20T04:37:51.061Z,2.40
2018-09-20T04:40:19.165Z,2.37
2018-09-20T04:42:47.223Z,2.30
2018-09-20T04:45:15.313Z,2.43
2018-09-20T04:47:43.365Z,2.00
2018-09-20T04:50:11.454Z,2.33
2018-09-20T04:52:39.514Z,2.10
2018-09-20T04:55:07.730Z,2.00
2018-09-20T04:57:35.657Z,2.50
2018-09-20T05:00:03.627Z,2.40
2018-09-20T05:02:31.485Z,2.23
2018-09-20T05:04:59.370Z,2.23
2018-09-20T05:07:27.240Z,2.60
2018-09-20T05:09:55.415Z,2.10
2018-09-20T05:12:28.589Z,2.40
2018-09-20T05:14:56.777Z,2.50
2018-09-20T05:17:25.145Z,2.10
2018-09-20T05:19:53.224Z,2.40
2018-09-20T05:22:21.290Z,2.50
2018-09-20T05:24:49.371Z,2.40
2018-09-20T05:27:17.425Z,2.43
2018-09-20T05:29:45.306Z,2.60
2018-09-20T05:32:13.185Z,2.27
2018-09-20T05:34:41.349Z,2.40
2018-09-20T05:37:09.418Z,2.33
2018-09-20T05:39:37.485Z,2.10
2018-09-20T05:42:05.469Z,1.90
2018-09-20T05:44:33.965Z,2.23
2018-09-20T05:47:01.993Z,2.47
2018-09-20T05:49:29.976Z,2.20
2018-09-20T05:51:58.169Z,2.03
2018-09-20T05:54:26.241Z,2.23
2018-09-20T05:56:54.118Z,2.47
2018-09-20T05:59:22.093Z,2.20
2018-09-20T06:01:49.936Z,2.40
2018-09-20T06:04:17.817Z,2.40
2018-09-20T06:06:45.949Z,2.10
2018-09-20T06:09:14.038Z,2.40
2018-09-20T06:11:42.092Z,2.33
2018-09-20T06:14:09.986Z,2.10
2018-09-20T06:16:37.845Z,2.40
2018-09-20T06:19:05.728Z,2.60
2018-09-20T06:21:33.602Z,3.63
2018-09-20T06:24:01.471Z,5.07
2018-09-20T06:26:29.445Z,4.57
2018-09-20T06:28:57.380Z,4.70
2018-09-20T06:31:26.059Z,5.30
2018-09-20T06:33:53.925Z,5.20
2018-09-20T06:39:07.484Z,4.20
2018-09-20T06:41:35.365Z,5.60
2018-09-20T06:44:03.289Z,7.77
2018-09-20T06:46:31.384Z,5.57
2018-09-20T06:48:59.445Z,4.73
2018-09-20T06:51:27.525Z,4.40
2018-09-20T06:53:55.593Z,3.83
2018-09-20T06:56:23.673Z,4.87
2018-09-20T06:58:51.556Z,4.70
2018-09-20T07:01:19.538Z,3.73
2018-09-20T07:03:48.031Z,4.43
2018-09-20T07:06:16.221Z,4.13
2018-09-20T07:08:44.482Z,4.17
2018-09-20T07:11:13.119Z,4.20
2018-09-20T07:13:41.117Z,4.07
2018-09-20T07:16:09.001Z,6.17
2018-09-20T07:18:37.149Z,5.63
2018-09-20T07:21:05.043Z,5.27
2018-09-20T07:23:32.903Z,4.10
2018-09-20T07:26:01.025Z,3.90
2018-09-20T07:28:28.899Z,4.07
2018-09-20T07:30:56.793Z,4.73
2018-09-20T07:33:25.246Z,4.87
2018-09-20T07:35:53.106Z,4.40
2018-09-20T07:38:21.055Z,10.80
2018-09-20T07:40:48.928Z,8.73
2018-09-20T07:43:16.777Z,7.67
2018-09-20T07:45:44.675Z,5.97
2018-09-20T07:48:12.760Z,5.63
2018-09-20T07:50:40.656Z,4.47
2018-09-20T07:53:08.529Z,5.00
2018-09-20T07:55:36.592Z,4.30
2018-09-20T07:58:04.467Z,4.47
2018-09-20T08:00:32.375Z,4.90
2018-09-20T08:03:00.208Z,4.53
2018-09-20T08:05:28.138Z,4.77
2018-09-20T08:07:56.109Z,4.13
2018-09-20T08:10:23.988Z,3.50
2018-09-20T08:12:51.872Z,4.03
2018-09-20T08:15:19.762Z,4.20
2018-09-20T08:17:47.773Z,4.13
2018-09-20T08:20:15.613Z,4.10
2018-09-20T08:22:43.468Z,4.27
2018-09-20T08:25:11.535Z,3.90
2018-09-20T08:27:39.598Z,4.17
2018-09-20T08:30:07.445Z,3.70
2018-09-20T08:32:35.369Z,3.73
2018-09-20T08:35:03.438Z,4.23
2018-09-20T08:37:31.356Z,3.90
2018-09-20T08:39:59.261Z,4.23
2018-09-20T08:42:27.588Z,4.30
2018-09-20T08:44:55.563Z,4.13
2018-09-20T08:47:25.121Z,4.00
2018-09-20T08:49:54.129Z,3.87
2018-09-20T08:52:26.040Z,4.13
2018-09-20T08:54:53.941Z,4.40
2018-09-20T08:57:21.841Z,4.13
2018-09-20T08:59:49.974Z,3.90
2018-09-20T09:02:17.982Z,4.00
2018-09-20T09:04:46.121Z,4.00
2018-09-20T09:07:14.129Z,3.60
2018-09-20T09:09:41.998Z,4.00
2018-09-20T09:12:09.873Z,3.97
2018-09-20T09:14:37.745Z,3.60
2018-09-20T09:17:05.629Z,3.60
2018-09-20T09:19:33.666Z,3.53
2018-09-20T09:22:01.526Z,3.67
2018-09-20T09:24:29.482Z,3.97
2018-09-20T09:26:57.361Z,3.53
2018-09-20T09:29:25.289Z,3.73
2018-09-20T09:31:53.379Z,3.50
2018-09-20T09:34:21.429Z,4.10
2018-09-20T09:36:49.530Z,4.07
2018-09-20T09:39:17.573Z,3.80
2018-09-20T09:41:45.666Z,3.77
2018-09-20T09:44:13.531Z,3.40
2018-09-20T09:46:41.489Z,3.60
2018-09-20T09:49:09.550Z,3.57
2018-09-20T09:51:37.433Z,3.30
2018-09-20T09:54:05.400Z,3.83
2018-09-20T09:56:33.677Z,3.17
2018-09-20T09:59:01.579Z,3.00
2018-09-20T10:01:33.001Z,3.60
2018-09-20T10:04:01.049Z,3.00
2018-09-20T10:06:28.904Z,3.43
2018-09-20T10:08:56.869Z,3.50
2018-09-20T10:11:24.725Z,2.93
2018-09-20T10:13:52.769Z,3.60
2018-09-20T10:16:20.642Z,3.23
2018-09-20T10:18:48.501Z,2.90
2018-09-20T10:21:16.637Z,3.13
2018-09-20T10:23:44.696Z,3.30
2018-09-20T10:26:12.769Z,3.30
2018-09-20T10:28:40.768Z,3.47
2018-09-20T10:31:09.066Z,3.23
2018-09-20T10:33:36.972Z,3.00
2018-09-20T10:36:04.865Z,3.00
2018-09-20T10:38:32.748Z,2.70
2018-09-20T10:41:00.886Z,3.50
2018-09-20T10:43:28.769Z,3.17
2018-09-20T10:45:56.736Z,2.77
2018-09-20T10:48:24.620Z,3.20
2018-09-20T10:50:52.487Z,3.40
2018-09-20T10:53:26.238Z,3.00
2018-09-20T10:55:54.275Z,3.13
2018-09-20T10:58:22.309Z,3.50
2018-09-20T11:00:50.212Z,3.27
2018-09-20T11:03:18.155Z,3.40
2018-09-20T11:08:27.185Z,3.70
2018-09-20T11:10:55.229Z,2.93
2018-09-20T11:13:23.334Z,3.10
2018-09-20T11:15:51.394Z,3.50
2018-09-20T11:18:19.733Z,3.60
2018-09-20T11:20:47.807Z,3.13
2018-09-20T11:23:15.690Z,3.00
2018-09-20T11:25:43.700Z,3.90
2018-09-20T11:28:11.549Z,3.40
2018-09-20T11:30:39.418Z,3.23
2018-09-20T11:33:07.369Z,3.67
2018-09-20T11:35:35.334Z,3.23
2018-09-20T11:38:04.964Z,3.20
2018-09-20T11:40:32.828Z,3.20
2018-09-20T11:43:00.800Z,3.40
2018-09-20T11:45:30.372Z,4.00
2018-09-20T11:47:58.457Z,3.63
2018-09-20T11:50:26.341Z,3.27
2018-09-20T11:52:54.214Z,3.30
2018-09-20T11:55:22.089Z,3.70
2018-09-20T11:57:50.130Z,3.37
2018-09-20T12:00:21.113Z,3.73
2018-09-20T12:02:49.989Z,4.60
2018-09-20T12:05:17.913Z,3.60
2018-09-20T12:07:46.401Z,3.43
2018-09-20T12:10:14.414Z,3.90
2018-09-20T12:12:42.473Z,2.80
2018-09-20T12:15:10.357Z,3.30
2018-09-20T12:17:38.250Z,3.30
2018-09-20T12:20:06.276Z,3.63
2018-09-20T12:22:34.756Z,3.33
2018-09-20T12:25:03.055Z,2.77
2018-09-20T12:27:32.346Z,3.20
2018-09-20T12:30:00.301Z,3.30
2018-09-20T12:32:28.646Z,3.10
2018-09-20T12:34:56.529Z,3.10
2018-09-20T12:37:30.120Z,3.20
2018-09-20T12:39:58.102Z,2.87
2018-09-20T12:42:26.165Z,3.47
2018-09-20T12:44:54.305Z,5.40
2018-09-20T12:47:22.340Z,6.47
2018-09-20T12:49:50.362Z,6.23
2018-09-20T12:52:18.428Z,7.27
2018-09-20T12:54:46.381Z,7.03
2018-09-20T12:57:14.185Z,6.23
2018-09-20T12:59:42.367Z,5.33
2018-09-20T13:02:10.307Z,6.20
2018-09-20T13:04:38.153Z,5.17
2018-09-20T13:09:47.254Z,4.43
2018-09-20T13:12:15.298Z,3.87
2018-09-20T13:14:43.703Z,4.10
2018-09-20T13:17:11.733Z,3.70
2018-09-20T13:19:39.742Z,3.30
2018-09-20T13:22:07.864Z,3.00
2018-09-20T13:24:35.749Z,3.40
2018-09-20T13:27:03.718Z,3.33
2018-09-20T13:29:31.726Z,2.77
2018-09-20T13:31:59.769Z,2.90
2018-09-20T13:34:27.627Z,3.17
2018-09-20T13:36:55.694Z,2.80
2018-09-20T13:39:23.793Z,2.83
2018-09-20T13:41:51.793Z,3.20
2018-09-20T13:44:19.934Z,3.10
2018-09-20T13:46:47.804Z,3.00
2018-09-20T13:49:15.684Z,2.73
2018-09-20T13:51:43.568Z,2.63
2018-09-20T13:54:11.919Z,2.42
2018-09-20T13:56:39.810Z,2.75
2018-09-20T13:59:07.717Z,2.45
2018-09-20T14:01:35.618Z,14.70
2018-09-20T14:04:03.486Z,18.10
2018-09-20T14:06:35.320Z,14.43
2018-09-20T14:09:04.434Z,12.33
2018-09-20T14:11:32.325Z,11.33
2018-09-20T14:14:00.414Z,9.43
2018-09-20T14:16:28.301Z,7.53
2018-09-20T14:18:56.169Z,7.70
2018-09-20T14:21:24.066Z,6.37
2018-09-20T14:23:52.059Z,4.90
2018-09-20T14:26:19.922Z,4.78
2018-09-20T14:28:47.966Z,3.85
2018-09-20T14:31:15.878Z,3.85
2018-09-20T14:33:43.789Z,3.05
2018-09-20T14:36:11.861Z,3.85
2018-09-20T14:38:39.846Z,3.20
2018-09-20T14:41:08.005Z,3.55
2018-09-20T14:43:36.336Z,2.75
2018-09-20T14:46:04.457Z,2.90
2018-09-20T14:48:32.518Z,2.77
2018-09-20T14:51:02.293Z,2.90
2018-09-20T14:53:30.822Z,3.02
2018-09-20T14:55:58.698Z,2.95
2018-09-20T14:59:26.274Z,3.08
2018-09-20T15:03:03.793Z,2.83
2018-09-20T15:05:40.014Z,3.00
2018-09-20T15:08:07.922Z,2.75
2018-09-20T15:10:35.974Z,3.02
2018-09-20T15:13:03.882Z,2.85
2018-09-20T15:15:31.753Z,3.25
2018-09-20T15:17:59.653Z,3.40
2018-09-20T15:20:27.601Z,3.27
2018-09-20T15:22:55.479Z,2.60
2018-09-20T15:25:23.425Z,2.72
2018-09-20T15:27:51.812Z,2.75
2018-09-20T15:30:20.293Z,2.72
2018-09-20T15:32:48.494Z,3.35
2018-09-20T15:35:16.542Z,3.10
2018-09-20T15:37:44.634Z,2.55
2018-09-20T15:40:12.672Z,3.17
2018-09-20T15:42:40.703Z,2.95
2018-09-20T15:45:08.562Z,2.87
2018-09-20T15:47:36.634Z,2.40
2018-09-20T15:50:04.668Z,3.15
2018-09-20T15:52:32.581Z,2.90
2018-09-20T15:55:00.499Z,2.37
2018-09-20T15:57:28.408Z,2.95
2018-09-20T15:59:56.296Z,2.40
2018-09-20T16:02:24.411Z,2.90
2018-09-20T16:04:52.473Z,2.95
2018-09-20T16:07:20.380Z,2.70
2018-09-20T16:09:48.305Z,3.22
2018-09-20T16:12:16.210Z,3.22
2018-09-20T16:14:44.137Z,2.75
2018-09-20T16:17:12.230Z,2.80
2018-09-20T16:19:40.119Z,2.70
2018-09-20T16:22:08.082Z,2.65
2018-09-20T16:24:36.117Z,3.12
2018-09-20T16:27:04.006Z,2.33
2018-09-20T16:29:40.790Z,2.67
2018-09-20T16:32:25.805Z,2.72
2018-09-20T16:34:57.910Z,2.55
2018-09-20T16:37:34.661Z,2.72
2018-09-20T16:40:02.943Z,2.72
2018-09-20T16:42:32.009Z,3.10
2018-09-20T16:45:00.011Z,2.70
2018-09-20T16:47:28.082Z,2.45
2018-09-20T16:49:55.985Z,2.87
2018-09-20T16:52:23.914Z,2.35
2018-09-20T16:54:52.002Z,2.72
2018-09-20T16:57:19.895Z,2.83
2018-09-20T16:59:47.802Z,2.70
2018-09-20T17:02:15.690Z,2.70
2018-09-20T17:04:43.671Z,2.87
2018-09-20T17:07:11.788Z,2.40
2018-09-20T17:09:39.818Z,3.20
2018-09-20T17:12:07.697Z,2.45
2018-09-20T17:14:35.702Z,2.55
2018-09-20T17:17:03.934Z,2.72
2018-09-20T17:19:32.040Z,2.47
2018-09-20T17:22:00.154Z,2.50
2018-09-20T17:24:28.054Z,2.72
2018-09-20T17:26:55.985Z,2.65
2018-09-20T17:29:23.885Z,2.80
2018-09-20T17:31:51.794Z,2.25
2018-09-20T17:34:20.208Z,2.45
2018-09-20T17:36:49.021Z,2.30
2018-09-20T17:39:17.106Z,2.42
2018-09-20T17:41:46.339Z,2.62
2018-09-20T17:44:14.349Z,2.67
2018-09-20T17:46:42.402Z,2.75
2018-09-20T17:49:10.420Z,2.40
2018-09-20T17:51:38.645Z,2.50
2018-09-20T17:54:06.988Z,2.22
2018-09-20T17:56:34.932Z,2.77
2018-09-20T17:59:03.093Z,2.67
2018-09-20T18:01:31.137Z,2.12
2018-09-20T18:03:59.026Z,2.37
2018-09-20T18:06:26.989Z,2.65
2018-09-20T18:08:54.874Z,2.33
2018-09-20T18:11:22.774Z,2.30
2018-09-20T18:13:50.670Z,2.35
2018-09-20T18:16:18.577Z,2.50
2018-09-20T18:18:46.709Z,2.30
2018-09-20T18:21:14.797Z,2.30
2018-09-20T18:23:42.690Z,2.05
2018-09-20T18:26:10.633Z,2.10
2018-09-20T18:28:38.527Z,2.55
2018-09-20T18:31:06.454Z,2.20
2018-09-20T18:33:34.534Z,2.50
2018-09-20T18:36:02.431Z,2.17
2018-09-20T18:38:30.369Z,2.30
2018-09-20T18:40:58.454Z,2.30
2018-09-20T18:43:26.340Z,2.50
2018-09-20T18:45:54.281Z,2.15
2018-09-20T18:48:22.371Z,2.42
2018-09-20T18:50:50.430Z,2.30
2018-09-20T18:53:18.313Z,2.63
2018-09-20T18:55:46.262Z,2.67
2018-09-20T18:58:14.352Z,2.50
2018-09-20T19:00:42.406Z,2.58
2018-09-20T19:03:10.501Z,2.22
2018-09-20T19:05:38.545Z,2.70
2018-09-20T19:08:06.434Z,2.30
2018-09-20T19:10:34.334Z,2.50
2018-09-20T19:13:02.526Z,2.17
2018-09-20T19:15:30.346Z,2.20
2018-09-20T19:17:58.275Z,2.47
2018-09-20T19:20:26.358Z,2.40
2018-09-20T19:22:54.336Z,2.50
2018-09-20T19:25:22.634Z,2.33
2018-09-20T19:27:50.600Z,2.20
2018-09-20T19:30:18.629Z,2.25
2018-09-20T19:32:46.874Z,2.45
2018-09-20T19:35:14.602Z,2.40
2018-09-20T19:37:42.550Z,2.30
2018-09-20T19:40:10.606Z,2.73
2018-09-20T19:42:38.699Z,2.30
2018-09-20T19:45:06.750Z,2.70
2018-09-20T19:47:34.838Z,2.53
2018-09-20T19:50:02.895Z,2.50
2018-09-20T19:52:30.986Z,2.40
2018-09-20T19:54:59.071Z,2.47
2018-09-20T19:57:27.126Z,2.40
2018-09-20T19:59:55.022Z,2.33
2018-09-20T20:02:22.953Z,2.20
2018-09-20T20:04:51.013Z,2.40
2018-09-20T20:07:18.918Z,2.63
2018-09-20T20:09:46.798Z,2.27
2018-09-20T20:12:14.922Z,2.07
2018-09-20T20:14:43.001Z,2.30
2018-09-20T20:17:11.021Z,2.40
2018-09-20T20:19:39.184Z,2.53
2018-09-20T20:22:07.250Z,2.30
2018-09-20T20:24:35.318Z,2.50
2018-09-20T20:27:03.228Z,2.23
2018-09-20T20:29:31.418Z,2.60
2018-09-20T20:31:59.506Z,2.00
2018-09-20T20:34:27.562Z,2.33
2018-09-20T20:36:55.471Z,1.97
2018-09-20T20:39:23.398Z,2.17
2018-09-20T20:41:51.482Z,2.30
2018-09-20T20:44:19.538Z,2.30
2018-09-20T20:46:47.446Z,2.30
2018-09-20T20:49:15.374Z,2.30
2018-09-20T20:51:43.269Z,2.10
2018-09-20T20:54:11.165Z,2.30
2018-09-20T20:56:39.074Z,2.20
2018-09-20T20:59:07.365Z,2.70
2018-09-20T21:01:35.385Z,2.20
2018-09-20T21:04:03.490Z,2.10
2018-09-20T21:06:31.590Z,2.50
2018-09-20T21:08:59.689Z,2.30
2018-09-20T21:11:27.710Z,2.50
2018-09-20T21:13:55.619Z,2.37
2018-09-20T21:16:23.502Z,2.17
2018-09-20T21:18:51.410Z,2.40
2018-09-20T21:21:19.377Z,2.43
2018-09-20T21:23:47.470Z,2.27
2018-09-20T21:26:15.485Z,2.30
2018-09-20T21:28:43.606Z,2.47
2018-09-20T21:31:11.512Z,2.00
2018-09-20T21:33:39.451Z,2.03
2018-09-20T21:36:07.502Z,2.20
2018-09-20T21:38:35.585Z,2.20
2018-09-20T21:41:03.643Z,2.17
2018-09-20T21:43:32.434Z,2.00
2018-09-20T21:46:00.401Z,2.30
2018-09-20T21:48:28.610Z,2.47
2018-09-20T21:50:56.591Z,2.20
2018-09-20T21:53:24.442Z,2.27
2018-09-20T21:55:52.329Z,2.20
2018-09-20T21:58:20.225Z,2.40
2018-09-20T22:00:48.110Z,2.10
2018-09-20T22:03:16.214Z,2.40
2018-09-20T22:05:44.102Z,2.10
2018-09-20T22:08:12.133Z,2.23
2018-09-20T22:10:40.194Z,2.30
2018-09-20T22:13:08.095Z,1.97
2018-09-20T22:15:35.982Z,1.80
2018-09-20T22:18:04.018Z,2.37
2018-09-20T22:20:31.906Z,2.17
2018-09-20T22:22:59.951Z,2.17
2018-09-20T22:25:27.834Z,2.23
2018-09-20T22:27:55.790Z,2.13
2018-09-20T22:30:23.840Z,2.27
2018-09-20T22:32:51.890Z,2.07
2018-09-20T22:35:19.981Z,2.40
2018-09-20T22:37:47.886Z,2.07
2018-09-20T22:40:15.818Z,2.20
2018-09-20T22:42:43.910Z,2.40
2018-09-20T22:45:11.966Z,1.93
2018-09-20T22:47:40.030Z,2.23
2018-09-20T22:50:08.121Z,2.33
2018-09-20T22:52:36.173Z,2.40
2018-09-20T22:55:04.258Z,2.23
2018-09-20T22:57:32.147Z,2.20
2018-09-20T23:00:00.045Z,1.90
2018-09-20T23:02:28.129Z,1.97
2018-09-20T23:04:56.238Z,2.43
2018-09-20T23:07:24.127Z,2.20
2018-09-20T23:09:52.026Z,2.37
2018-09-20T23:12:20.126Z,2.23
2018-09-20T23:14:48.226Z,2.07
2018-09-20T23:17:16.278Z,2.20
2018-09-20T23:19:44.362Z,2.20
2018-09-20T23:22:12.241Z,1.83
2018-09-20T23:24:40.201Z,2.30
2018-09-20T23:27:08.249Z,2.07
2018-09-20T23:29:36.341Z,2.33
2018-09-20T23:32:04.394Z,2.30
2018-09-20T23:34:32.303Z,1.87
2018-09-20T23:37:00.229Z,2.40
2018-09-20T23:39:28.314Z,2.40
2018-09-20T23:41:56.197Z,2.10
2018-09-20T23:44:24.098Z,2.30
2018-09-20T23:46:52.210Z,2.20
2018-09-20T23:49:20.170Z,2.23
2018-09-20T23:51:48.056Z,1.97
2018-09-20T23:54:16.130Z,2.30
2018-09-20T23:56:44.186Z,2.33
2018-09-20T23:59:12.086Z,2.13
